sensor_id;sensor_type;location;lat;lon;timestamp;temperature;humidity
37460;DHT22;23318;50.966;5.284;2024-02-28T00:00:27;2.90;99.90
37460;DHT22;23318;50.966;5.284;2024-02-28T00:02:53;2.90;99.90
37460;DHT22;23318;50.966;5.284;2024-02-28T00:05:19;2.80;99.90
37460;DHT22;23318;50.966;5.284;2024-02-28T00:07:44;2.80;99.90
37460;DHT22;23318;50.966;5.284;2024-02-28T00:10:11;2.80;99.90
37460;DHT22;23318;50.966;5.284;2024-02-28T00:12:38;2.70;99.90
37460;DHT22;23318;50.966;5.284;2024-02-28T00:15:05;2.60;99.90
37460;DHT22;23318;50.966;5.284;2024-02-28T00:17:31;2.70;99.90
37460;DHT22;23318;50.966;5.284;2024-02-28T00:19:56;2.60;99.90
37460;DHT22;23318;50.966;5.284;2024-02-28T00:22:22;2.50;99.90
37460;DHT22;23318;50.966;5.284;2024-02-28T00:24:47;2.70;99.90
37460;DHT22;23318;50.966;5.284;2024-02-28T00:27:13;2.70;99.90
37460;DHT22;23318;50.966;5.284;2024-02-28T00:29:39;2.80;99.90
37460;DHT22;23318;50.966;5.284;2024-02-28T00:32:05;2.80;99.90
37460;DHT22;23318;50.966;5.284;2024-02-28T00:34:31;2.80;99.90
37460;DHT22;23318;50.966;5.284;2024-02-28T00:36:56;2.80;99.90
37460;DHT22;23318;50.966;5.284;2024-02-28T00:39:22;2.70;99.90
37460;DHT22;23318;50.966;5.284;2024-02-28T00:41:48;2.70;99.90
37460;DHT22;23318;50.966;5.284;2024-02-28T00:44:14;2.80;99.90
37460;DHT22;23318;50.966;5.284;2024-02-28T00:46:40;2.80;99.90
37460;DHT22;23318;50.966;5.284;2024-02-28T00:49:05;2.70;99.90
37460;DHT22;23318;50.966;5.284;2024-02-28T00:51:31;2.60;99.90
37460;DHT22;23318;50.966;5.284;2024-02-28T00:53:57;2.50;99.90
37460;DHT22;23318;50.966;5.284;2024-02-28T00:56:22;2.50;99.90
37460;DHT22;23318;50.966;5.284;2024-02-28T00:58:49;2.50;99.90
37460;DHT22;23318;50.966;5.284;2024-02-28T01:01:15;2.50;99.90
37460;DHT22;23318;50.966;5.284;2024-02-28T01:03:41;2.50;99.90
37460;DHT22;23318;50.966;5.284;2024-02-28T01:06:06;2.50;99.90
37460;DHT22;23318;50.966;5.284;2024-02-28T01:08:32;2.50;99.90
37460;DHT22;23318;50.966;5.284;2024-02-28T01:10:58;2.40;99.90
37460;DHT22;23318;50.966;5.284;2024-02-28T01:13:24;2.30;99.90
37460;DHT22;23318;50.966;5.284;2024-02-28T01:15:50;2.30;99.90
37460;DHT22;23318;50.966;5.284;2024-02-28T01:18:15;2.20;99.90
37460;DHT22;23318;50.966;5.284;2024-02-28T01:20:41;2.20;99.90
37460;DHT22;23318;50.966;5.284;2024-02-28T01:23:07;2.20;99.90
37460;DHT22;23318;50.966;5.284;2024-02-28T01:25:32;2.20;99.90
37460;DHT22;23318;50.966;5.284;2024-02-28T01:27:58;2.10;99.90
37460;DHT22;23318;50.966;5.284;2024-02-28T01:30:24;2.20;99.90
37460;DHT22;23318;50.966;5.284;2024-02-28T01:32:50;2.40;99.90
37460;DHT22;23318;50.966;5.284;2024-02-28T01:35:15;2.30;99.90
37460;DHT22;23318;50.966;5.284;2024-02-28T01:37:41;2.30;99.90
37460;DHT22;23318;50.966;5.284;2024-02-28T01:40:07;2.30;99.90
37460;DHT22;23318;50.966;5.284;2024-02-28T01:42:33;2.30;99.90
37460;DHT22;23318;50.966;5.284;2024-02-28T01:44:59;2.30;99.90
37460;DHT22;23318;50.966;5.284;2024-02-28T01:47:24;2.40;99.90
37460;DHT22;23318;50.966;5.284;2024-02-28T01:49:50;2.40;99.90
37460;DHT22;23318;50.966;5.284;2024-02-28T01:52:17;2.30;99.90
37460;DHT22;23318;50.966;5.284;2024-02-28T01:54:43;2.20;99.90
37460;DHT22;23318;50.966;5.284;2024-02-28T01:57:10;2.20;99.90
37460;DHT22;23318;50.966;5.284;2024-02-28T01:59:36;2.20;99.90
37460;DHT22;23318;50.966;5.284;2024-02-28T02:02:02;2.20;99.90
37460;DHT22;23318;50.966;5.284;2024-02-28T02:04:28;2.10;99.90
37460;DHT22;23318;50.966;5.284;2024-02-28T02:06:55;2.10;99.90
37460;DHT22;23318;50.966;5.284;2024-02-28T02:09:24;2.10;99.90
37460;DHT22;23318;50.966;5.284;2024-02-28T02:11:50;2.10;99.90
37460;DHT22;23318;50.966;5.284;2024-02-28T02:14:16;2.00;99.90
37460;DHT22;23318;50.966;5.284;2024-02-28T02:16:42;1.90;99.90
37460;DHT22;23318;50.966;5.284;2024-02-28T02:19:09;1.90;99.90
37460;DHT22;23318;50.966;5.284;2024-02-28T02:21:41;2.30;99.90
37460;DHT22;23318;50.966;5.284;2024-02-28T02:24:07;2.40;99.90
37460;DHT22;23318;50.966;5.284;2024-02-28T02:26:32;2.30;99.90
37460;DHT22;23318;50.966;5.284;2024-02-28T02:28:58;2.20;99.90
37460;DHT22;23318;50.966;5.284;2024-02-28T02:31:23;2.20;99.90
37460;DHT22;23318;50.966;5.284;2024-02-28T02:33:49;2.10;99.90
37460;DHT22;23318;50.966;5.284;2024-02-28T02:36:15;2.10;99.90
37460;DHT22;23318;50.966;5.284;2024-02-28T02:38:40;2.00;99.90
37460;DHT22;23318;50.966;5.284;2024-02-28T02:41:06;2.20;99.90
37460;DHT22;23318;50.966;5.284;2024-02-28T02:43:32;2.20;99.90
37460;DHT22;23318;50.966;5.284;2024-02-28T02:45:57;2.20;99.90
37460;DHT22;23318;50.966;5.284;2024-02-28T02:48:23;2.20;99.90
37460;DHT22;23318;50.966;5.284;2024-02-28T02:50:49;2.20;99.90
37460;DHT22;23318;50.966;5.284;2024-02-28T02:53:14;2.20;99.90
37460;DHT22;23318;50.966;5.284;2024-02-28T02:55:40;2.10;99.90
37460;DHT22;23318;50.966;5.284;2024-02-28T02:58:05;2.10;99.90
37460;DHT22;23318;50.966;5.284;2024-02-28T03:00:31;2.00;99.90
37460;DHT22;23318;50.966;5.284;2024-02-28T03:02:57;2.20;99.90
37460;DHT22;23318;50.966;5.284;2024-02-28T03:05:22;2.00;99.90
37460;DHT22;23318;50.966;5.284;2024-02-28T03:07:48;2.10;99.90
37460;DHT22;23318;50.966;5.284;2024-02-28T03:10:14;2.10;99.90
37460;DHT22;23318;50.966;5.284;2024-02-28T03:12:39;2.10;99.90
37460;DHT22;23318;50.966;5.284;2024-02-28T03:15:06;2.00;99.90
37460;DHT22;23318;50.966;5.284;2024-02-28T03:17:32;2.00;99.90
37460;DHT22;23318;50.966;5.284;2024-02-28T03:19:58;2.10;99.90
37460;DHT22;23318;50.966;5.284;2024-02-28T03:22:24;2.00;99.90
37460;DHT22;23318;50.966;5.284;2024-02-28T03:24:50;1.90;99.90
37460;DHT22;23318;50.966;5.284;2024-02-28T03:27:15;1.90;99.90
37460;DHT22;23318;50.966;5.284;2024-02-28T03:29:41;1.80;99.90
37460;DHT22;23318;50.966;5.284;2024-02-28T03:32:08;1.90;99.90
37460;DHT22;23318;50.966;5.284;2024-02-28T03:34:33;2.00;99.90
37460;DHT22;23318;50.966;5.284;2024-02-28T03:36:59;2.00;99.90
37460;DHT22;23318;50.966;5.284;2024-02-28T03:39:25;1.90;99.90
37460;DHT22;23318;50.966;5.284;2024-02-28T03:41:50;1.80;99.90
37460;DHT22;23318;50.966;5.284;2024-02-28T03:44:16;1.80;99.90
37460;DHT22;23318;50.966;5.284;2024-02-28T03:46:41;1.80;99.90
37460;DHT22;23318;50.966;5.284;2024-02-28T03:49:07;1.80;99.90
37460;DHT22;23318;50.966;5.284;2024-02-28T03:51:39;1.80;99.90
37460;DHT22;23318;50.966;5.284;2024-02-28T03:54:05;1.70;99.90
37460;DHT22;23318;50.966;5.284;2024-02-28T03:56:31;1.70;99.90
37460;DHT22;23318;50.966;5.284;2024-02-28T03:58:57;1.70;99.90
37460;DHT22;23318;50.966;5.284;2024-02-28T04:01:22;1.30;99.90
37460;DHT22;23318;50.966;5.284;2024-02-28T04:03:48;1.30;99.90
37460;DHT22;23318;50.966;5.284;2024-02-28T04:06:14;1.20;99.90
37460;DHT22;23318;50.966;5.284;2024-02-28T04:08:41;1.30;99.90
37460;DHT22;23318;50.966;5.284;2024-02-28T04:11:07;1.40;99.90
37460;DHT22;23318;50.966;5.284;2024-02-28T04:13:32;1.40;99.90
37460;DHT22;23318;50.966;5.284;2024-02-28T04:15:58;1.40;99.90
37460;DHT22;23318;50.966;5.284;2024-02-28T04:18:24;1.40;99.90
37460;DHT22;23318;50.966;5.284;2024-02-28T04:20:50;1.20;99.90
37460;DHT22;23318;50.966;5.284;2024-02-28T04:23:15;1.30;99.90
37460;DHT22;23318;50.966;5.284;2024-02-28T04:25:42;1.30;99.90
37460;DHT22;23318;50.966;5.284;2024-02-28T04:28:08;1.30;99.90
37460;DHT22;23318;50.966;5.284;2024-02-28T04:30:37;1.30;99.90
37460;DHT22;23318;50.966;5.284;2024-02-28T04:33:02;1.30;99.90
37460;DHT22;23318;50.966;5.284;2024-02-28T04:35:28;1.30;99.90
37460;DHT22;23318;50.966;5.284;2024-02-28T04:37:54;1.20;99.90
37460;DHT22;23318;50.966;5.284;2024-02-28T04:40:19;1.20;99.90
37460;DHT22;23318;50.966;5.284;2024-02-28T04:42:45;1.10;99.90
37460;DHT22;23318;50.966;5.284;2024-02-28T04:45:11;1.10;99.90
37460;DHT22;23318;50.966;5.284;2024-02-28T04:47:37;1.10;99.90
37460;DHT22;23318;50.966;5.284;2024-02-28T04:50:04;1.20;99.90
37460;DHT22;23318;50.966;5.284;2024-02-28T04:52:31;1.30;99.90
37460;DHT22;23318;50.966;5.284;2024-02-28T04:54:57;1.40;99.90
37460;DHT22;23318;50.966;5.284;2024-02-28T04:57:23;1.30;99.90
37460;DHT22;23318;50.966;5.284;2024-02-28T04:59:48;1.30;99.90
37460;DHT22;23318;50.966;5.284;2024-02-28T05:02:14;1.30;99.90
37460;DHT22;23318;50.966;5.284;2024-02-28T05:04:40;1.30;99.90
37460;DHT22;23318;50.966;5.284;2024-02-28T05:07:06;1.40;99.90
37460;DHT22;23318;50.966;5.284;2024-02-28T05:09:33;1.40;99.90
37460;DHT22;23318;50.966;5.284;2024-02-28T05:11:59;1.30;99.90
37460;DHT22;23318;50.966;5.284;2024-02-28T05:14:25;0.90;99.90
37460;DHT22;23318;50.966;5.284;2024-02-28T05:16:50;1.10;99.90
37460;DHT22;23318;50.966;5.284;2024-02-28T05:19:16;1.20;99.90
37460;DHT22;23318;50.966;5.284;2024-02-28T05:21:45;1.30;99.90
37460;DHT22;23318;50.966;5.284;2024-02-28T05:24:11;1.30;99.90
37460;DHT22;23318;50.966;5.284;2024-02-28T05:26:37;1.20;99.90
37460;DHT22;23318;50.966;5.284;2024-02-28T05:29:04;1.20;99.90
37460;DHT22;23318;50.966;5.284;2024-02-28T05:31:30;1.30;99.90
37460;DHT22;23318;50.966;5.284;2024-02-28T05:33:59;1.40;99.90
37460;DHT22;23318;50.966;5.284;2024-02-28T05:36:27;1.50;99.90
37460;DHT22;23318;50.966;5.284;2024-02-28T05:38:55;1.60;99.90
37460;DHT22;23318;50.966;5.284;2024-02-28T05:41:21;1.60;99.90
37460;DHT22;23318;50.966;5.284;2024-02-28T05:43:47;1.50;99.90
37460;DHT22;23318;50.966;5.284;2024-02-28T05:46:14;1.60;99.90
37460;DHT22;23318;50.966;5.284;2024-02-28T05:48:44;1.60;99.90
37460;DHT22;23318;50.966;5.284;2024-02-28T05:51:11;1.70;99.90
37460;DHT22;23318;50.966;5.284;2024-02-28T05:53:37;1.70;99.90
37460;DHT22;23318;50.966;5.284;2024-02-28T05:56:04;1.80;99.90
37460;DHT22;23318;50.966;5.284;2024-02-28T05:58:30;1.80;99.90
37460;DHT22;23318;50.966;5.284;2024-02-28T06:00:56;1.70;99.90
37460;DHT22;23318;50.966;5.284;2024-02-28T06:03:22;1.80;99.90
37460;DHT22;23318;50.966;5.284;2024-02-28T06:05:47;1.80;99.90
37460;DHT22;23318;50.966;5.284;2024-02-28T06:08:14;1.80;99.90
37460;DHT22;23318;50.966;5.284;2024-02-28T06:10:39;1.70;99.90
37460;DHT22;23318;50.966;5.284;2024-02-28T06:13:07;1.70;99.90
37460;DHT22;23318;50.966;5.284;2024-02-28T06:15:33;1.60;99.90
37460;DHT22;23318;50.966;5.284;2024-02-28T06:17:59;1.60;99.90
37460;DHT22;23318;50.966;5.284;2024-02-28T06:20:26;1.60;99.90
37460;DHT22;23318;50.966;5.284;2024-02-28T06:22:52;1.50;99.90
37460;DHT22;23318;50.966;5.284;2024-02-28T06:25:17;1.40;99.90
37460;DHT22;23318;50.966;5.284;2024-02-28T06:27:45;1.50;99.90
37460;DHT22;23318;50.966;5.284;2024-02-28T06:30:11;1.40;99.90
37460;DHT22;23318;50.966;5.284;2024-02-28T06:32:40;1.40;99.90
37460;DHT22;23318;50.966;5.284;2024-02-28T06:35:07;1.40;99.90
37460;DHT22;23318;50.966;5.284;2024-02-28T06:37:33;1.30;99.90
37460;DHT22;23318;50.966;5.284;2024-02-28T06:39:59;1.40;99.90
37460;DHT22;23318;50.966;5.284;2024-02-28T06:42:25;1.40;99.90
37460;DHT22;23318;50.966;5.284;2024-02-28T06:44:50;1.40;99.90
37460;DHT22;23318;50.966;5.284;2024-02-28T06:47:16;1.40;99.90
37460;DHT22;23318;50.966;5.284;2024-02-28T06:49:43;1.50;99.90
37460;DHT22;23318;50.966;5.284;2024-02-28T06:52:09;1.50;99.90
37460;DHT22;23318;50.966;5.284;2024-02-28T06:54:35;1.50;99.90
37460;DHT22;23318;50.966;5.284;2024-02-28T06:57:00;1.50;99.90
37460;DHT22;23318;50.966;5.284;2024-02-28T06:59:27;1.60;99.90
37460;DHT22;23318;50.966;5.284;2024-02-28T07:01:53;1.60;99.90
37460;DHT22;23318;50.966;5.284;2024-02-28T07:04:19;1.80;99.90
37460;DHT22;23318;50.966;5.284;2024-02-28T07:06:44;1.80;99.90
37460;DHT22;23318;50.966;5.284;2024-02-28T07:09:11;1.90;99.90
37460;DHT22;23318;50.966;5.284;2024-02-28T07:11:37;1.80;99.90
37460;DHT22;23318;50.966;5.284;2024-02-28T07:14:04;1.80;99.90
37460;DHT22;23318;50.966;5.284;2024-02-28T07:16:30;1.80;99.90
37460;DHT22;23318;50.966;5.284;2024-02-28T07:18:56;2.00;99.90
37460;DHT22;23318;50.966;5.284;2024-02-28T07:21:21;2.10;99.90
37460;DHT22;23318;50.966;5.284;2024-02-28T07:23:47;2.10;99.90
37460;DHT22;23318;50.966;5.284;2024-02-28T07:26:16;2.00;99.90
37460;DHT22;23318;50.966;5.284;2024-02-28T07:28:42;2.10;99.90
37460;DHT22;23318;50.966;5.284;2024-02-28T07:31:18;2.30;99.90
37460;DHT22;23318;50.966;5.284;2024-02-28T07:33:44;2.30;99.90
37460;DHT22;23318;50.966;5.284;2024-02-28T07:36:10;2.40;99.90
37460;DHT22;23318;50.966;5.284;2024-02-28T07:38:36;2.40;99.90
37460;DHT22;23318;50.966;5.284;2024-02-28T07:41:02;2.50;99.90
37460;DHT22;23318;50.966;5.284;2024-02-28T07:43:28;2.50;99.90
37460;DHT22;23318;50.966;5.284;2024-02-28T07:45:54;2.70;99.90
37460;DHT22;23318;50.966;5.284;2024-02-28T07:48:19;2.90;99.90
37460;DHT22;23318;50.966;5.284;2024-02-28T07:50:45;3.00;99.90
37460;DHT22;23318;50.966;5.284;2024-02-28T07:53:14;3.10;99.90
37460;DHT22;23318;50.966;5.284;2024-02-28T07:55:40;3.10;99.90
37460;DHT22;23318;50.966;5.284;2024-02-28T07:58:06;2.90;99.90
37460;DHT22;23318;50.966;5.284;2024-02-28T08:00:32;3.00;99.90
37460;DHT22;23318;50.966;5.284;2024-02-28T08:03:01;3.00;99.90
37460;DHT22;23318;50.966;5.284;2024-02-28T08:05:27;3.20;99.90
37460;DHT22;23318;50.966;5.284;2024-02-28T08:07:52;3.20;99.90
37460;DHT22;23318;50.966;5.284;2024-02-28T08:10:18;3.10;99.90
37460;DHT22;23318;50.966;5.284;2024-02-28T08:12:44;3.20;99.90
37460;DHT22;23318;50.966;5.284;2024-02-28T08:15:10;3.20;99.90
37460;DHT22;23318;50.966;5.284;2024-02-28T08:17:36;3.40;99.90
37460;DHT22;23318;50.966;5.284;2024-02-28T08:20:03;3.60;99.90
37460;DHT22;23318;50.966;5.284;2024-02-28T08:22:30;3.50;99.90
37460;DHT22;23318;50.966;5.284;2024-02-28T08:24:56;3.10;99.90
37460;DHT22;23318;50.966;5.284;2024-02-28T08:27:22;2.80;99.90
37460;DHT22;23318;50.966;5.284;2024-02-28T08:29:52;2.70;99.90
37460;DHT22;23318;50.966;5.284;2024-02-28T08:32:18;2.70;99.90
37460;DHT22;23318;50.966;5.284;2024-02-28T08:34:45;3.00;99.90
37460;DHT22;23318;50.966;5.284;2024-02-28T08:37:14;3.50;99.90
37460;DHT22;23318;50.966;5.284;2024-02-28T08:39:40;3.20;99.90
37460;DHT22;23318;50.966;5.284;2024-02-28T08:42:06;3.40;99.90
37460;DHT22;23318;50.966;5.284;2024-02-28T08:44:31;3.40;99.90
37460;DHT22;23318;50.966;5.284;2024-02-28T08:46:57;3.70;99.90
37460;DHT22;23318;50.966;5.284;2024-02-28T08:49:23;4.00;99.90
37460;DHT22;23318;50.966;5.284;2024-02-28T08:51:48;4.30;99.90
37460;DHT22;23318;50.966;5.284;2024-02-28T08:54:14;4.60;99.90
37460;DHT22;23318;50.966;5.284;2024-02-28T08:56:39;4.30;99.90
37460;DHT22;23318;50.966;5.284;2024-02-28T08:59:05;4.30;99.90
37460;DHT22;23318;50.966;5.284;2024-02-28T09:01:31;4.40;99.90
37460;DHT22;23318;50.966;5.284;2024-02-28T09:03:58;4.40;99.90
37460;DHT22;23318;50.966;5.284;2024-02-28T09:06:24;3.90;99.90
37460;DHT22;23318;50.966;5.284;2024-02-28T09:08:49;4.50;99.90
37460;DHT22;23318;50.966;5.284;2024-02-28T09:11:15;4.20;99.90
37460;DHT22;23318;50.966;5.284;2024-02-28T09:13:40;4.20;99.90
37460;DHT22;23318;50.966;5.284;2024-02-28T09:16:06;4.40;99.90
37460;DHT22;23318;50.966;5.284;2024-02-28T09:18:32;4.50;99.90
37460;DHT22;23318;50.966;5.284;2024-02-28T09:20:57;4.40;99.90
37460;DHT22;23318;50.966;5.284;2024-02-28T09:23:23;5.20;99.90
37460;DHT22;23318;50.966;5.284;2024-02-28T09:25:49;5.60;99.90
37460;DHT22;23318;50.966;5.284;2024-02-28T09:28:14;5.40;99.90
37460;DHT22;23318;50.966;5.284;2024-02-28T09:30:41;5.90;99.90
37460;DHT22;23318;50.966;5.284;2024-02-28T09:33:08;6.20;99.90
37460;DHT22;23318;50.966;5.284;2024-02-28T09:35:35;6.00;99.90
37460;DHT22;23318;50.966;5.284;2024-02-28T09:38:02;6.40;99.90
37460;DHT22;23318;50.966;5.284;2024-02-28T09:40:27;6.80;99.90
37460;DHT22;23318;50.966;5.284;2024-02-28T09:43:00;7.10;99.90
37460;DHT22;23318;50.966;5.284;2024-02-28T09:45:26;7.20;99.90
37460;DHT22;23318;50.966;5.284;2024-02-28T09:47:52;7.50;99.90
37460;DHT22;23318;50.966;5.284;2024-02-28T09:50:18;7.60;99.90
37460;DHT22;23318;50.966;5.284;2024-02-28T09:52:45;7.80;99.90
37460;DHT22;23318;50.966;5.284;2024-02-28T09:55:10;7.80;99.90
37460;DHT22;23318;50.966;5.284;2024-02-28T09:57:36;8.20;99.90
37460;DHT22;23318;50.966;5.284;2024-02-28T10:00:03;8.00;99.90
37460;DHT22;23318;50.966;5.284;2024-02-28T10:02:31;8.20;99.90
37460;DHT22;23318;50.966;5.284;2024-02-28T10:04:59;7.40;99.90
37460;DHT22;23318;50.966;5.284;2024-02-28T10:07:26;7.50;99.90
37460;DHT22;23318;50.966;5.284;2024-02-28T10:09:52;7.00;99.90
37460;DHT22;23318;50.966;5.284;2024-02-28T10:12:18;6.80;99.90
37460;DHT22;23318;50.966;5.284;2024-02-28T10:14:44;7.00;99.90
37460;DHT22;23318;50.966;5.284;2024-02-28T10:17:10;6.30;99.90
37460;DHT22;23318;50.966;5.284;2024-02-28T10:19:36;6.50;99.90
37460;DHT22;23318;50.966;5.284;2024-02-28T10:22:01;6.70;99.90
37460;DHT22;23318;50.966;5.284;2024-02-28T10:24:27;7.10;99.90
37460;DHT22;23318;50.966;5.284;2024-02-28T10:26:53;6.80;99.90
37460;DHT22;23318;50.966;5.284;2024-02-28T10:29:25;6.50;99.90
37460;DHT22;23318;50.966;5.284;2024-02-28T10:31:51;6.40;99.90
37460;DHT22;23318;50.966;5.284;2024-02-28T10:34:17;6.30;99.90
37460;DHT22;23318;50.966;5.284;2024-02-28T10:36:44;6.40;99.90
37460;DHT22;23318;50.966;5.284;2024-02-28T10:39:11;6.50;99.90
37460;DHT22;23318;50.966;5.284;2024-02-28T10:41:41;7.00;99.90
37460;DHT22;23318;50.966;5.284;2024-02-28T10:44:07;6.90;99.90
37460;DHT22;23318;50.966;5.284;2024-02-28T10:46:33;6.90;99.90
37460;DHT22;23318;50.966;5.284;2024-02-28T10:49:00;6.80;99.90
37460;DHT22;23318;50.966;5.284;2024-02-28T10:51:26;6.70;99.90
37460;DHT22;23318;50.966;5.284;2024-02-28T10:56:40;7.90;99.90
37460;DHT22;23318;50.966;5.284;2024-02-28T10:59:07;8.00;99.90
37460;DHT22;23318;50.966;5.284;2024-02-28T11:01:38;7.60;99.90
37460;DHT22;23318;50.966;5.284;2024-02-28T11:04:04;7.60;99.90
37460;DHT22;23318;50.966;5.284;2024-02-28T11:06:30;7.30;99.90
37460;DHT22;23318;50.966;5.284;2024-02-28T11:08:59;8.00;99.90
37460;DHT22;23318;50.966;5.284;2024-02-28T11:11:30;8.00;99.90
37460;DHT22;23318;50.966;5.284;2024-02-28T11:13:57;7.70;99.90
37460;DHT22;23318;50.966;5.284;2024-02-28T11:16:29;8.20;99.90
37460;DHT22;23318;50.966;5.284;2024-02-28T11:18:55;8.10;99.90
37460;DHT22;23318;50.966;5.284;2024-02-28T11:21:28;7.90;99.90
37460;DHT22;23318;50.966;5.284;2024-02-28T11:23:58;7.50;99.90
37460;DHT22;23318;50.966;5.284;2024-02-28T11:26:24;8.00;99.90
37460;DHT22;23318;50.966;5.284;2024-02-28T11:28:50;7.90;99.90
37460;DHT22;23318;50.966;5.284;2024-02-28T11:31:16;7.80;99.90
37460;DHT22;23318;50.966;5.284;2024-02-28T11:33:44;7.60;99.90
37460;DHT22;23318;50.966;5.284;2024-02-28T11:36:11;7.90;99.90
37460;DHT22;23318;50.966;5.284;2024-02-28T11:38:39;8.50;99.90
37460;DHT22;23318;50.966;5.284;2024-02-28T11:41:05;9.10;99.90
37460;DHT22;23318;50.966;5.284;2024-02-28T11:43:34;9.40;99.90
37460;DHT22;23318;50.966;5.284;2024-02-28T11:46:00;9.30;99.90
37460;DHT22;23318;50.966;5.284;2024-02-28T11:48:26;8.70;99.90
37460;DHT22;23318;50.966;5.284;2024-02-28T11:50:56;8.10;99.90
37460;DHT22;23318;50.966;5.284;2024-02-28T11:53:24;8.30;99.90
37460;DHT22;23318;50.966;5.284;2024-02-28T11:55:52;8.30;99.90
37460;DHT22;23318;50.966;5.284;2024-02-28T11:58:17;8.10;99.90
37460;DHT22;23318;50.966;5.284;2024-02-28T12:00:50;7.90;99.90
37460;DHT22;23318;50.966;5.284;2024-02-28T12:03:23;7.90;99.90
37460;DHT22;23318;50.966;5.284;2024-02-28T12:05:49;8.70;99.90
37460;DHT22;23318;50.966;5.284;2024-02-28T12:08:18;8.40;99.90
37460;DHT22;23318;50.966;5.284;2024-02-28T12:10:45;8.30;99.90
37460;DHT22;23318;50.966;5.284;2024-02-28T12:13:11;8.30;99.90
37460;DHT22;23318;50.966;5.284;2024-02-28T12:15:39;8.80;99.90
37460;DHT22;23318;50.966;5.284;2024-02-28T12:18:10;8.60;99.90
37460;DHT22;23318;50.966;5.284;2024-02-28T12:20:36;9.00;99.90
37460;DHT22;23318;50.966;5.284;2024-02-28T12:23:05;9.50;99.90
37460;DHT22;23318;50.966;5.284;2024-02-28T12:25:31;9.70;99.90
37460;DHT22;23318;50.966;5.284;2024-02-28T12:27:57;10.40;99.90
37460;DHT22;23318;50.966;5.284;2024-02-28T12:30:22;11.10;99.90
37460;DHT22;23318;50.966;5.284;2024-02-28T12:32:48;11.70;99.90
37460;DHT22;23318;50.966;5.284;2024-02-28T12:35:14;12.20;99.90
37460;DHT22;23318;50.966;5.284;2024-02-28T12:37:39;12.00;99.90
37460;DHT22;23318;50.966;5.284;2024-02-28T12:40:06;12.20;99.90
37460;DHT22;23318;50.966;5.284;2024-02-28T12:42:32;12.70;99.90
37460;DHT22;23318;50.966;5.284;2024-02-28T12:44:57;11.70;99.90
37460;DHT22;23318;50.966;5.284;2024-02-28T12:47:23;11.80;99.90
37460;DHT22;23318;50.966;5.284;2024-02-28T12:49:49;13.00;99.90
37460;DHT22;23318;50.966;5.284;2024-02-28T12:52:14;12.80;99.90
37460;DHT22;23318;50.966;5.284;2024-02-28T12:54:40;12.90;99.90
37460;DHT22;23318;50.966;5.284;2024-02-28T12:57:06;12.30;99.90
37460;DHT22;23318;50.966;5.284;2024-02-28T12:59:32;12.30;99.90
37460;DHT22;23318;50.966;5.284;2024-02-28T13:01:58;12.80;99.90
37460;DHT22;23318;50.966;5.284;2024-02-28T13:04:24;12.30;99.90
37460;DHT22;23318;50.966;5.284;2024-02-28T13:06:51;12.20;99.90
37460;DHT22;23318;50.966;5.284;2024-02-28T13:09:18;12.00;99.90
37460;DHT22;23318;50.966;5.284;2024-02-28T13:11:44;12.80;99.90
37460;DHT22;23318;50.966;5.284;2024-02-28T13:14:09;12.10;99.90
37460;DHT22;23318;50.966;5.284;2024-02-28T13:16:36;11.50;99.90
37460;DHT22;23318;50.966;5.284;2024-02-28T13:19:01;10.70;99.90
37460;DHT22;23318;50.966;5.284;2024-02-28T13:21:28;10.40;99.90
37460;DHT22;23318;50.966;5.284;2024-02-28T13:23:53;10.40;99.90
37460;DHT22;23318;50.966;5.284;2024-02-28T13:26:19;11.00;99.90
37460;DHT22;23318;50.966;5.284;2024-02-28T13:28:46;11.30;99.90
37460;DHT22;23318;50.966;5.284;2024-02-28T13:31:13;11.00;99.90
37460;DHT22;23318;50.966;5.284;2024-02-28T13:33:39;10.90;99.90
37460;DHT22;23318;50.966;5.284;2024-02-28T13:36:07;11.00;99.90
37460;DHT22;23318;50.966;5.284;2024-02-28T13:38:32;10.40;99.90
37460;DHT22;23318;50.966;5.284;2024-02-28T13:40:58;9.60;99.90
37460;DHT22;23318;50.966;5.284;2024-02-28T13:43:25;9.70;99.90
37460;DHT22;23318;50.966;5.284;2024-02-28T13:45:51;9.70;99.90
37460;DHT22;23318;50.966;5.284;2024-02-28T13:48:23;9.60;99.90
37460;DHT22;23318;50.966;5.284;2024-02-28T13:50:52;9.50;99.90
37460;DHT22;23318;50.966;5.284;2024-02-28T13:53:18;9.50;99.90
37460;DHT22;23318;50.966;5.284;2024-02-28T13:55:44;9.60;99.90
37460;DHT22;23318;50.966;5.284;2024-02-28T13:58:11;9.60;99.90
37460;DHT22;23318;50.966;5.284;2024-02-28T14:00:38;9.90;99.90
37460;DHT22;23318;50.966;5.284;2024-02-28T14:03:05;9.60;99.90
37460;DHT22;23318;50.966;5.284;2024-02-28T14:05:32;9.80;99.90
37460;DHT22;23318;50.966;5.284;2024-02-28T14:07:57;10.10;99.90
37460;DHT22;23318;50.966;5.284;2024-02-28T14:10:24;10.20;99.90
37460;DHT22;23318;50.966;5.284;2024-02-28T14:12:50;10.20;99.90
37460;DHT22;23318;50.966;5.284;2024-02-28T14:15:21;10.00;99.90
37460;DHT22;23318;50.966;5.284;2024-02-28T14:17:47;9.80;99.90
37460;DHT22;23318;50.966;5.284;2024-02-28T14:20:13;9.80;99.90
37460;DHT22;23318;50.966;5.284;2024-02-28T14:22:40;9.70;99.90
37460;DHT22;23318;50.966;5.284;2024-02-28T14:25:17;9.60;99.90
37460;DHT22;23318;50.966;5.284;2024-02-28T14:27:47;9.40;99.90
37460;DHT22;23318;50.966;5.284;2024-02-28T14:30:13;9.60;99.90
37460;DHT22;23318;50.966;5.284;2024-02-28T14:32:40;9.40;99.90
37460;DHT22;23318;50.966;5.284;2024-02-28T14:35:07;9.40;99.90
37460;DHT22;23318;50.966;5.284;2024-02-28T14:37:38;9.40;99.90
37460;DHT22;23318;50.966;5.284;2024-02-28T14:40:06;9.70;99.90
37460;DHT22;23318;50.966;5.284;2024-02-28T14:42:44;10.00;99.90
37460;DHT22;23318;50.966;5.284;2024-02-28T14:45:13;9.60;99.90
37460;DHT22;23318;50.966;5.284;2024-02-28T14:47:43;9.50;99.90
37460;DHT22;23318;50.966;5.284;2024-02-28T14:50:09;9.70;99.90
37460;DHT22;23318;50.966;5.284;2024-02-28T14:52:38;9.70;99.90
37460;DHT22;23318;50.966;5.284;2024-02-28T14:55:09;10.00;99.90
37460;DHT22;23318;50.966;5.284;2024-02-28T14:57:38;10.10;99.90
37460;DHT22;23318;50.966;5.284;2024-02-28T15:00:06;10.00;99.90
37460;DHT22;23318;50.966;5.284;2024-02-28T15:02:34;9.90;99.90
37460;DHT22;23318;50.966;5.284;2024-02-28T15:05:01;9.70;99.90
37460;DHT22;23318;50.966;5.284;2024-02-28T15:07:30;10.00;99.90
37460;DHT22;23318;50.966;5.284;2024-02-28T15:09:56;10.10;99.90
37460;DHT22;23318;50.966;5.284;2024-02-28T15:12:26;10.00;99.90
37460;DHT22;23318;50.966;5.284;2024-02-28T15:14:51;10.20;99.90
37460;DHT22;23318;50.966;5.284;2024-02-28T15:17:19;10.20;99.90
37460;DHT22;23318;50.966;5.284;2024-02-28T15:19:45;9.90;99.90
37460;DHT22;23318;50.966;5.284;2024-02-28T15:22:11;10.20;99.90
37460;DHT22;23318;50.966;5.284;2024-02-28T15:24:37;10.30;99.90
37460;DHT22;23318;50.966;5.284;2024-02-28T15:27:04;9.90;99.90
37460;DHT22;23318;50.966;5.284;2024-02-28T15:29:30;9.40;99.90
37460;DHT22;23318;50.966;5.284;2024-02-28T15:31:56;9.50;99.90
37460;DHT22;23318;50.966;5.284;2024-02-28T15:34:21;9.70;99.90
37460;DHT22;23318;50.966;5.284;2024-02-28T15:36:47;9.90;99.90
37460;DHT22;23318;50.966;5.284;2024-02-28T15:39:13;10.00;99.90
37460;DHT22;23318;50.966;5.284;2024-02-28T15:41:40;10.00;99.90